Aérodrome :
LOGIN :

S'inscrire | Disclaimer

   EN    FR    IT 

 










Légende :    VFR   VFR Marginal   IFR   IFR Intensif   IFR Très Intensif
Visi : 
Plafond : 
>= 8 km
>= 3000ft
5 à 8 km
1000 à 3000 ft
1500m à 5 km
500 à 1000 ft
800 à 1500m
200 à 500 ft
< 800m
< 200 ft
Symboles :   Orages  Brouillard  Fortes neiges  Fortes précipitations  Vent > 20 kt
SIGMETs :   Divers  Orages  Givrage  Turbulence  Onde Orograph.  Cendres Volcan.






- Altitude de l'aérodrome : 312 ft
- Code IATA : SAW


LTFJ - Sabiha Gokcen

DERNIER METAR :
  • 162050Z 04011KT CAVOK 15/13 Q1020 NOSIG RMK RWY24 01008KT

METARs EXPIRÉS :
  • 162020Z 04011KT CAVOK 15/13 Q1021 NOSIG RMK RWY24 01007KT
  • 161950Z 04011KT CAVOK 15/13 Q1021 NOSIG RMK RWY24 01008KT
  • 161920Z 03009KT CAVOK 15/13 Q1021 NOSIG RMK RWY24 01008KT 350V050
  • 161850Z 03011KT CAVOK 15/13 Q1021 NOSIG RMK RWY24 01008KT
  • 161820Z 03008KT CAVOK 15/13 Q1021 NOSIG RMK RWY24 02008KT

TAF TAF LTFJ
Valide du 16 à 18h jusqu'au 17 à 18h UTC


161640Z 1618/1718 03009KT CAVOK
BECMG 1622/1702 4000 BR SCT010
TEMPO 1704/1707 1200 BCFG BKN006
BECMG 1708/1711 CAVOK



MET'MAP, la Météo Aéronautique d'un coup d'oeil ! - Copyright ORBIFLY Décembre 2007 - Disclaimer

ORBIFLY MET'MAP TEAM :

Programmation & Développement : Alexandra Zaïnal
Conception & Développement : Baudouin d'Aumeries
Co-Programmation & Développement : Marc-Olivier Méhu
Soutien technique & logistique : Manuel Goepfert

Contact : metmap@orbifly.com




SOURCES & CREDITS :

   NOAA